This is the latest recevied weather packets stored in our database for station/object KD7DVD-1. If no packets are shown the sender has not sent any weather packets the latest 10 day(s).
| Time | Temp. | Humidity | Pressure | Rain* | Wind** | Luminosity | Snow |
|---|---|---|---|---|---|---|---|
| 1777534216 | 11.11° C | 84% | 1021.6 hPa | 0 mm | - | - | - |
| 1777532416 | 12.22° C | 82% | 1021.7 hPa | 0 mm | - | - | - |
| 1777530617 | 12.22° C | 80% | 1021.6 hPa | 0 mm | - | - | - |
| 1777528817 | 13.33° C | 77% | 1021.6 hPa | 0 mm | - | - | - |
| 1777527017 | 13.89° C | 73% | 1021.6 hPa | 0 mm | - | - | - |
| 1777525217 | 14.44° C | 71% | 1021.6 hPa | 0 mm | - | - | - |
| 1777523417 | 15° C | 68% | 1021.5 hPa | 0 mm | - | - | - |
| 1777521617 | 15° C | 66% | 1021.4 hPa | 0 mm | - | - | - |
| 1777519817 | 15.56° C | 64% | 1021.1 hPa | 0 mm | - | - | - |
| 1777518017 | 16.11° C | 64% | 1021.1 hPa | 0 mm | - | - | - |
| 1777516217 | 17.22° C | 61% | 1021 hPa | 0 mm | - | - | - |
| 1777514417 | 18.89° C | 53% | 1021 hPa | 0 mm | - | - | - |
| 1777512617 | 20.56° C | 51% | 1021.2 hPa | 0 mm | - | - | - |
| 1777510816 | 20° C | 54% | 1021.5 hPa | 0 mm | - | - | - |
| 1777509016 | 19.44° C | 58% | 1021.4 hPa | 0 mm | - | - | - |
| 1777507216 | 18.89° C | 58% | 1021.6 hPa | 0 mm | - | - | - |
| 1777505416 | 20° C | 55% | 1021.9 hPa | 0 mm | - | - | - |
| 1777503616 | 19.44° C | 57% | 1022.4 hPa | 0 mm | - | - | - |
| 1777501816 | 19.44° C | 54% | 1022.6 hPa | 0 mm | - | - | - |
| 1777500016 | 18.89° C | 57% | 1022.7 hPa | 0 mm | - | - | - |
| 1777498216 | 18.33° C | 58% | 1023 hPa | 0 mm | - | - | - |
| 1777496416 | 17.22° C | 61% | 1023 hPa | 0 mm | - | - | - |
| 1777494616 | 16.67° C | 62% | 1023.1 hPa | 0 mm | - | - | - |
| 1777492816 | 16.11° C | 63% | 1023.4 hPa | 0 mm | - | - | - |
| 1777491016 | 15.56° C | 65% | 1023.7 hPa | 0 mm | - | - | - |
* Rain latest hour (hover to see other rain measurements)
** Current wind speed in m/s (hover to see current wind gust speed)